sensor_id;sensor_type;location;lat;lon;timestamp;P1;durP1;ratioP1;P2;durP2;ratioP2
51515;SDS011;37603;55.614;37.326;2023-04-03T00:02:26;11.0;;;8.9;;
51515;SDS011;37603;55.614;37.326;2023-04-03T00:08:25;11.2;;;8.8;;
51515;SDS011;37603;55.614;37.326;2023-04-03T00:14:24;9.9;;;8.5;;
51515;SDS011;37603;55.614;37.326;2023-04-03T00:20:23;11.1;;;8.8;;
51515;SDS011;37603;55.614;37.326;2023-04-03T00:26:22;11.3;;;8.7;;
51515;SDS011;37603;55.614;37.326;2023-04-03T00:32:21;13.0;;;9.4;;
51515;SDS011;37603;55.614;37.326;2023-04-03T00:38:20;11.3;;;9.4;;
51515;SDS011;37603;55.614;37.326;2023-04-03T00:44:20;10.7;;;9.4;;
51515;SDS011;37603;55.614;37.326;2023-04-03T00:50:18;11.1;;;9.1;;
51515;SDS011;37603;55.614;37.326;2023-04-03T00:56:18;11.9;;;9.1;;
51515;SDS011;37603;55.614;37.326;2023-04-03T01:02:16;14.0;;;10.7;;
51515;SDS011;37603;55.614;37.326;2023-04-03T01:08:15;12.3;;;10.3;;
51515;SDS011;37603;55.614;37.326;2023-04-03T01:14:14;13.7;;;12.3;;
51515;SDS011;37603;55.614;37.326;2023-04-03T01:20:24;16.8;;;15.0;;
51515;SDS011;37603;55.614;37.326;2023-04-03T01:26:12;16.1;;;13.7;;
51515;SDS011;37603;55.614;37.326;2023-04-03T01:32:11;14.9;;;12.9;;
51515;SDS011;37603;55.614;37.326;2023-04-03T01:38:10;13.3;;;11.7;;
51515;SDS011;37603;55.614;37.326;2023-04-03T01:44:09;13.2;;;11.1;;
51515;SDS011;37603;55.614;37.326;2023-04-03T01:50:08;13.0;;;10.6;;
51515;SDS011;37603;55.614;37.326;2023-04-03T01:56:07;12.3;;;10.2;;
51515;SDS011;37603;55.614;37.326;2023-04-03T02:02:06;10.7;;;9.4;;
51515;SDS011;37603;55.614;37.326;2023-04-03T02:08:05;10.3;;;8.5;;
51515;SDS011;37603;55.614;37.326;2023-04-03T02:20:04;8.8;;;7.9;;
51515;SDS011;37603;55.614;37.326;2023-04-03T02:26:03;11.0;;;8.9;;
51515;SDS011;37603;55.614;37.326;2023-04-03T02:32:01;11.3;;;10.1;;
51515;SDS011;37603;55.614;37.326;2023-04-03T02:38:00;11.7;;;10.3;;
51515;SDS011;37603;55.614;37.326;2023-04-03T02:43:59;11.5;;;9.2;;
51515;SDS011;37603;55.614;37.326;2023-04-03T02:49:58;11.0;;;9.7;;
51515;SDS011;37603;55.614;37.326;2023-04-03T02:55:57;11.8;;;10.0;;
51515;SDS011;37603;55.614;37.326;2023-04-03T03:01:56;14.7;;;10.8;;
51515;SDS011;37603;55.614;37.326;2023-04-03T03:07:55;14.9;;;11.4;;
51515;SDS011;37603;55.614;37.326;2023-04-03T03:13:54;13.7;;;11.0;;
51515;SDS011;37603;55.614;37.326;2023-04-03T03:19:52;13.4;;;10.5;;
51515;SDS011;37603;55.614;37.326;2023-04-03T03:25:54;14.7;;;11.8;;
51515;SDS011;37603;55.614;37.326;2023-04-03T03:31:51;15.2;;;13.0;;
51515;SDS011;37603;55.614;37.326;2023-04-03T03:37:49;14.6;;;12.9;;
51515;SDS011;37603;55.614;37.326;2023-04-03T03:43:48;16.7;;;13.2;;
51515;SDS011;37603;55.614;37.326;2023-04-03T03:49:47;13.8;;;11.3;;
51515;SDS011;37603;55.614;37.326;2023-04-03T03:55:46;15.5;;;12.4;;
51515;SDS011;37603;55.614;37.326;2023-04-03T04:01:45;14.8;;;11.5;;
51515;SDS011;37603;55.614;37.326;2023-04-03T04:07:44;16.4;;;12.3;;
51515;SDS011;37603;55.614;37.326;2023-04-03T04:13:43;15.4;;;12.7;;
51515;SDS011;37603;55.614;37.326;2023-04-03T04:19:42;15.5;;;13.9;;
51515;SDS011;37603;55.614;37.326;2023-04-03T04:25:41;16.4;;;14.4;;
51515;SDS011;37603;55.614;37.326;2023-04-03T04:31:40;18.6;;;16.3;;
51515;SDS011;37603;55.614;37.326;2023-04-03T04:37:39;16.3;;;14.6;;
51515;SDS011;37603;55.614;37.326;2023-04-03T04:43:38;18.0;;;15.6;;
51515;SDS011;37603;55.614;37.326;2023-04-03T04:49:37;16.0;;;14.3;;
51515;SDS011;37603;55.614;37.326;2023-04-03T04:55:36;17.0;;;14.0;;
51515;SDS011;37603;55.614;37.326;2023-04-03T05:07:34;15.4;;;12.3;;
51515;SDS011;37603;55.614;37.326;2023-04-03T05:13:33;14.1;;;12.5;;
51515;SDS011;37603;55.614;37.326;2023-04-03T05:19:32;14.9;;;12.5;;
51515;SDS011;37603;55.614;37.326;2023-04-03T05:25:31;15.0;;;12.7;;
51515;SDS011;37603;55.614;37.326;2023-04-03T05:31:30;16.5;;;13.1;;
51515;SDS011;37603;55.614;37.326;2023-04-03T05:37:29;16.9;;;12.9;;
51515;SDS011;37603;55.614;37.326;2023-04-03T05:43:28;17.9;;;13.2;;
51515;SDS011;37603;55.614;37.326;2023-04-03T05:49:27;16.9;;;13.6;;
51515;SDS011;37603;55.614;37.326;2023-04-03T05:55:26;21.2;;;14.9;;
51515;SDS011;37603;55.614;37.326;2023-04-03T06:01:25;21.8;;;15.3;;
51515;SDS011;37603;55.614;37.326;2023-04-03T06:07:24;18.5;;;14.3;;
51515;SDS011;37603;55.614;37.326;2023-04-03T06:13:23;19.0;;;15.4;;
51515;SDS011;37603;55.614;37.326;2023-04-03T06:19:22;19.5;;;14.5;;
51515;SDS011;37603;55.614;37.326;2023-04-03T06:25:21;20.7;;;15.1;;
51515;SDS011;37603;55.614;37.326;2023-04-03T06:31:20;20.3;;;15.4;;
51515;SDS011;37603;55.614;37.326;2023-04-03T06:37:20;20.1;;;15.3;;
51515;SDS011;37603;55.614;37.326;2023-04-03T06:43:18;19.3;;;13.9;;
51515;SDS011;37603;55.614;37.326;2023-04-03T06:49:17;19.0;;;13.8;;
51515;SDS011;37603;55.614;37.326;2023-04-03T06:55:16;22.2;;;14.1;;
51515;SDS011;37603;55.614;37.326;2023-04-03T07:01:15;20.7;;;14.3;;
51515;SDS011;37603;55.614;37.326;2023-04-03T07:07:14;20.2;;;13.5;;
51515;SDS011;37603;55.614;37.326;2023-04-03T07:13:13;19.8;;;13.9;;
51515;SDS011;37603;55.614;37.326;2023-04-03T07:19:12;21.0;;;12.8;;
51515;SDS011;37603;55.614;37.326;2023-04-03T07:25:11;20.2;;;13.1;;
51515;SDS011;37603;55.614;37.326;2023-04-03T07:31:11;16.7;;;11.8;;
51515;SDS011;37603;55.614;37.326;2023-04-03T07:37:10;18.5;;;12.7;;
51515;SDS011;37603;55.614;37.326;2023-04-03T07:43:09;18.9;;;12.1;;
51515;SDS011;37603;55.614;37.326;2023-04-03T07:49:08;16.4;;;11.9;;
51515;SDS011;37603;55.614;37.326;2023-04-03T07:55:08;21.0;;;11.5;;
51515;SDS011;37603;55.614;37.326;2023-04-03T08:01:06;15.8;;;11.2;;
51515;SDS011;37603;55.614;37.326;2023-04-03T08:07:06;17.9;;;10.2;;
51515;SDS011;37603;55.614;37.326;2023-04-03T08:13:05;18.3;;;11.0;;
51515;SDS011;37603;55.614;37.326;2023-04-03T08:19:04;19.2;;;10.7;;
51515;SDS011;37603;55.614;37.326;2023-04-03T08:25:04;17.5;;;10.2;;
51515;SDS011;37603;55.614;37.326;2023-04-03T08:31:03;15.7;;;9.8;;
51515;SDS011;37603;55.614;37.326;2023-04-03T08:37:02;18.9;;;10.4;;
51515;SDS011;37603;55.614;37.326;2023-04-03T08:43:03;17.5;;;10.0;;
51515;SDS011;37603;55.614;37.326;2023-04-03T08:49:00;19.0;;;10.4;;
51515;SDS011;37603;55.614;37.326;2023-04-03T08:55:00;17.7;;;10.6;;
51515;SDS011;37603;55.614;37.326;2023-04-03T09:01:00;22.5;;;10.3;;
51515;SDS011;37603;55.614;37.326;2023-04-03T09:07:00;17.1;;;10.5;;
51515;SDS011;37603;55.614;37.326;2023-04-03T09:12:59;16.1;;;10.3;;
51515;SDS011;37603;55.614;37.326;2023-04-03T09:18:58;16.6;;;10.5;;
51515;SDS011;37603;55.614;37.326;2023-04-03T09:24:57;17.3;;;9.5;;
51515;SDS011;37603;55.614;37.326;2023-04-03T09:30:55;22.1;;;11.2;;
51515;SDS011;37603;55.614;37.326;2023-04-03T09:36:55;16.2;;;10.0;;
51515;SDS011;37603;55.614;37.326;2023-04-03T09:42:55;19.4;;;11.7;;
51515;SDS011;37603;55.614;37.326;2023-04-03T09:48:56;21.0;;;11.9;;
51515;SDS011;37603;55.614;37.326;2023-04-03T09:54:53;20.8;;;11.1;;
51515;SDS011;37603;55.614;37.326;2023-04-03T10:00:54;19.4;;;11.1;;
51515;SDS011;37603;55.614;37.326;2023-04-03T10:06:52;17.8;;;10.7;;
51515;SDS011;37603;55.614;37.326;2023-04-03T10:18:53;18.1;;;11.0;;
51515;SDS011;37603;55.614;37.326;2023-04-03T10:24:52;20.3;;;11.1;;
51515;SDS011;37603;55.614;37.326;2023-04-03T10:30:50;17.3;;;9.8;;
51515;SDS011;37603;55.614;37.326;2023-04-03T10:36:50;18.7;;;11.8;;
51515;SDS011;37603;55.614;37.326;2023-04-03T10:42:49;19.6;;;10.3;;
51515;SDS011;37603;55.614;37.326;2023-04-03T10:48:50;15.2;;;8.5;;
51515;SDS011;37603;55.614;37.326;2023-04-03T10:54:48;13.6;;;7.7;;
51515;SDS011;37603;55.614;37.326;2023-04-03T11:00:46;13.5;;;7.4;;
51515;SDS011;37603;55.614;37.326;2023-04-03T11:06:46;13.4;;;7.3;;
51515;SDS011;37603;55.614;37.326;2023-04-03T11:12:46;13.1;;;8.8;;
51515;SDS011;37603;55.614;37.326;2023-04-03T11:18:45;18.0;;;9.8;;
51515;SDS011;37603;55.614;37.326;2023-04-03T11:24:54;17.9;;;10.7;;
51515;SDS011;37603;55.614;37.326;2023-04-03T11:30:44;16.6;;;10.6;;
51515;SDS011;37603;55.614;37.326;2023-04-03T11:36:42;19.2;;;9.4;;
51515;SDS011;37603;55.614;37.326;2023-04-03T11:42:42;12.5;;;8.3;;
51515;SDS011;37603;55.614;37.326;2023-04-03T11:48:48;16.4;;;8.7;;
51515;SDS011;37603;55.614;37.326;2023-04-03T11:54:44;16.9;;;8.4;;
51515;SDS011;37603;55.614;37.326;2023-04-03T12:00:49;15.2;;;8.7;;
51515;SDS011;37603;55.614;37.326;2023-04-03T12:12:39;20.5;;;9.5;;
51515;SDS011;37603;55.614;37.326;2023-04-03T12:18:40;16.1;;;8.6;;
51515;SDS011;37603;55.614;37.326;2023-04-03T12:24:37;14.7;;;9.3;;
51515;SDS011;37603;55.614;37.326;2023-04-03T12:30:36;15.9;;;9.2;;
51515;SDS011;37603;55.614;37.326;2023-04-03T12:36:38;14.8;;;8.8;;
51515;SDS011;37603;55.614;37.326;2023-04-03T12:42:42;13.9;;;8.5;;
51515;SDS011;37603;55.614;37.326;2023-04-03T12:48:37;10.9;;;7.4;;
51515;SDS011;37603;55.614;37.326;2023-04-03T12:54:35;12.0;;;6.4;;
51515;SDS011;37603;55.614;37.326;2023-04-03T13:00:34;11.3;;;6.0;;
51515;SDS011;37603;55.614;37.326;2023-04-03T13:06:34;8.5;;;5.8;;
51515;SDS011;37603;55.614;37.326;2023-04-03T13:12:32;11.0;;;6.4;;
51515;SDS011;37603;55.614;37.326;2023-04-03T13:18:32;8.8;;;6.0;;
51515;SDS011;37603;55.614;37.326;2023-04-03T13:24:32;13.3;;;6.4;;
51515;SDS011;37603;55.614;37.326;2023-04-03T13:30:31;8.8;;;5.8;;
51515;SDS011;37603;55.614;37.326;2023-04-03T13:36:30;15.8;;;6.2;;
51515;SDS011;37603;55.614;37.326;2023-04-03T13:42:31;12.0;;;5.9;;
51515;SDS011;37603;55.614;37.326;2023-04-03T13:48:28;15.1;;;6.5;;
51515;SDS011;37603;55.614;37.326;2023-04-03T13:54:29;10.7;;;5.5;;
51515;SDS011;37603;55.614;37.326;2023-04-03T14:00:30;12.3;;;6.1;;
51515;SDS011;37603;55.614;37.326;2023-04-03T14:06:26;13.3;;;7.1;;
51515;SDS011;37603;55.614;37.326;2023-04-03T14:12:26;12.4;;;6.6;;
51515;SDS011;37603;55.614;37.326;2023-04-03T14:24:24;12.7;;;6.9;;
51515;SDS011;37603;55.614;37.326;2023-04-03T14:30:25;14.5;;;6.9;;
51515;SDS011;37603;55.614;37.326;2023-04-03T14:36:24;16.5;;;7.6;;
51515;SDS011;37603;55.614;37.326;2023-04-03T14:42:23;12.3;;;7.0;;
51515;SDS011;37603;55.614;37.326;2023-04-03T14:48:22;11.9;;;6.5;;
51515;SDS011;37603;55.614;37.326;2023-04-03T14:54:21;21.0;;;7.6;;
51515;SDS011;37603;55.614;37.326;2023-04-03T15:00:21;23.6;;;7.0;;
51515;SDS011;37603;55.614;37.326;2023-04-03T15:06:19;36.5;;;7.7;;
51515;SDS011;37603;55.614;37.326;2023-04-03T15:12:19;33.7;;;7.6;;
51515;SDS011;37603;55.614;37.326;2023-04-03T15:18:19;19.1;;;6.4;;
51515;SDS011;37603;55.614;37.326;2023-04-03T15:24:17;20.2;;;6.6;;
51515;SDS011;37603;55.614;37.326;2023-04-03T15:30:17;15.5;;;6.1;;
51515;SDS011;37603;55.614;37.326;2023-04-03T15:36:16;13.5;;;6.4;;
51515;SDS011;37603;55.614;37.326;2023-04-03T15:42:15;13.4;;;6.4;;
51515;SDS011;37603;55.614;37.326;2023-04-03T15:48:14;12.9;;;6.2;;
51515;SDS011;37603;55.614;37.326;2023-04-03T15:54:13;13.5;;;6.4;;
51515;SDS011;37603;55.614;37.326;2023-04-03T16:00:13;11.8;;;6.1;;
51515;SDS011;37603;55.614;37.326;2023-04-03T16:06:12;12.4;;;6.2;;
51515;SDS011;37603;55.614;37.326;2023-04-03T16:12:11;12.3;;;6.3;;
51515;SDS011;37603;55.614;37.326;2023-04-03T16:18:10;12.7;;;6.4;;
51515;SDS011;37603;55.614;37.326;2023-04-03T16:24:09;16.6;;;6.8;;
51515;SDS011;37603;55.614;37.326;2023-04-03T16:30:09;13.8;;;6.3;;
51515;SDS011;37603;55.614;37.326;2023-04-03T16:36:08;11.9;;;6.6;;
51515;SDS011;37603;55.614;37.326;2023-04-03T16:42:07;16.0;;;6.9;;
51515;SDS011;37603;55.614;37.326;2023-04-03T16:48:06;14.3;;;6.9;;
51515;SDS011;37603;55.614;37.326;2023-04-03T16:54:05;14.7;;;7.4;;
51515;SDS011;37603;55.614;37.326;2023-04-03T17:00:05;18.4;;;7.7;;
51515;SDS011;37603;55.614;37.326;2023-04-03T17:06:04;13.6;;;7.2;;
51515;SDS011;37603;55.614;37.326;2023-04-03T17:12:03;14.2;;;7.0;;
51515;SDS011;37603;55.614;37.326;2023-04-03T17:18:02;17.8;;;7.7;;
51515;SDS011;37603;55.614;37.326;2023-04-03T17:24:01;13.0;;;7.8;;
51515;SDS011;37603;55.614;37.326;2023-04-03T17:30:00;13.7;;;8.2;;
51515;SDS011;37603;55.614;37.326;2023-04-03T17:36:00;13.9;;;7.7;;
51515;SDS011;37603;55.614;37.326;2023-04-03T17:41:59;16.0;;;8.3;;
51515;SDS011;37603;55.614;37.326;2023-04-03T17:47:58;14.2;;;7.4;;
51515;SDS011;37603;55.614;37.326;2023-04-03T17:53:57;13.6;;;7.5;;
51515;SDS011;37603;55.614;37.326;2023-04-03T17:59:56;13.8;;;7.8;;
51515;SDS011;37603;55.614;37.326;2023-04-03T18:05:55;15.1;;;7.9;;
51515;SDS011;37603;55.614;37.326;2023-04-03T18:11:54;14.2;;;7.8;;
51515;SDS011;37603;55.614;37.326;2023-04-03T18:17:53;14.7;;;8.0;;
51515;SDS011;37603;55.614;37.326;2023-04-03T18:23:53;16.7;;;9.6;;
51515;SDS011;37603;55.614;37.326;2023-04-03T18:29:53;12.6;;;9.2;;
51515;SDS011;37603;55.614;37.326;2023-04-03T18:35:51;14.9;;;8.4;;
51515;SDS011;37603;55.614;37.326;2023-04-03T18:41:50;13.4;;;7.8;;
51515;SDS011;37603;55.614;37.326;2023-04-03T18:47:49;12.7;;;7.8;;
51515;SDS011;37603;55.614;37.326;2023-04-03T18:53:48;12.0;;;7.5;;
51515;SDS011;37603;55.614;37.326;2023-04-03T18:59:47;14.1;;;8.0;;
51515;SDS011;37603;55.614;37.326;2023-04-03T19:05:46;13.3;;;7.5;;
51515;SDS011;37603;55.614;37.326;2023-04-03T19:11:45;12.7;;;7.7;;
51515;SDS011;37603;55.614;37.326;2023-04-03T19:17:44;10.8;;;7.3;;
51515;SDS011;37603;55.614;37.326;2023-04-03T19:23:44;10.0;;;7.3;;
51515;SDS011;37603;55.614;37.326;2023-04-03T19:29:43;12.7;;;7.5;;
51515;SDS011;37603;55.614;37.326;2023-04-03T19:35:42;11.9;;;7.7;;
51515;SDS011;37603;55.614;37.326;2023-04-03T19:41:41;14.3;;;8.2;;
51515;SDS011;37603;55.614;37.326;2023-04-03T19:47:40;12.7;;;8.6;;
51515;SDS011;37603;55.614;37.326;2023-04-03T19:53:39;11.8;;;9.2;;
51515;SDS011;37603;55.614;37.326;2023-04-03T19:59:38;14.0;;;9.3;;
51515;SDS011;37603;55.614;37.326;2023-04-03T20:05:38;12.2;;;9.0;;
51515;SDS011;37603;55.614;37.326;2023-04-03T20:11:37;12.0;;;8.8;;
51515;SDS011;37603;55.614;37.326;2023-04-03T20:17:36;13.4;;;9.1;;
51515;SDS011;37603;55.614;37.326;2023-04-03T20:23:35;12.2;;;9.2;;
51515;SDS011;37603;55.614;37.326;2023-04-03T20:29:34;13.8;;;9.6;;
51515;SDS011;37603;55.614;37.326;2023-04-03T20:35:33;14.0;;;9.8;;
51515;SDS011;37603;55.614;37.326;2023-04-03T20:41:32;12.3;;;9.5;;
51515;SDS011;37603;55.614;37.326;2023-04-03T20:47:31;11.5;;;8.8;;
51515;SDS011;37603;55.614;37.326;2023-04-03T20:53:30;12.8;;;9.5;;
51515;SDS011;37603;55.614;37.326;2023-04-03T20:59:45;13.6;;;9.8;;
51515;SDS011;37603;55.614;37.326;2023-04-03T21:01:40;unavailable;;;unavailable;;
51515;SDS011;37603;55.614;37.326;2023-04-03T21:01:52;13.6;;;9.8;;
51515;SDS011;37603;55.614;37.326;2023-04-03T21:05:28;12.0;;;9.6;;
51515;SDS011;37603;55.614;37.326;2023-04-03T21:23:25;13.1;;;11.0;;
51515;SDS011;37603;55.614;37.326;2023-04-03T21:29:25;14.4;;;11.0;;
51515;SDS011;37603;55.614;37.326;2023-04-03T21:35:23;17.6;;;11.8;;
51515;SDS011;37603;55.614;37.326;2023-04-03T21:41:22;15.1;;;11.1;;
51515;SDS011;37603;55.614;37.326;2023-04-03T21:47:21;17.3;;;11.4;;
51515;SDS011;37603;55.614;37.326;2023-04-03T21:53:21;15.8;;;11.2;;
51515;SDS011;37603;55.614;37.326;2023-04-03T21:59:19;14.4;;;11.1;;
51515;SDS011;37603;55.614;37.326;2023-04-03T22:05:18;19.1;;;13.7;;
51515;SDS011;37603;55.614;37.326;2023-04-03T22:11:17;20.3;;;15.8;;
51515;SDS011;37603;55.614;37.326;2023-04-03T22:17:16;19.5;;;14.9;;
51515;SDS011;37603;55.614;37.326;2023-04-03T22:23:15;23.4;;;16.2;;
51515;SDS011;37603;55.614;37.326;2023-04-03T22:29:15;24.5;;;19.3;;
51515;SDS011;37603;55.614;37.326;2023-04-03T22:35:14;24.7;;;19.8;;
51515;SDS011;37603;55.614;37.326;2023-04-03T22:41:13;23.5;;;18.5;;
51515;SDS011;37603;55.614;37.326;2023-04-03T22:47:12;23.4;;;19.1;;
51515;SDS011;37603;55.614;37.326;2023-04-03T22:53:11;25.5;;;20.3;;
51515;SDS011;37603;55.614;37.326;2023-04-03T22:59:10;21.4;;;19.1;;
51515;SDS011;37603;55.614;37.326;2023-04-03T23:05:09;25.5;;;19.7;;
51515;SDS011;37603;55.614;37.326;2023-04-03T23:11:08;26.4;;;21.2;;
51515;SDS011;37603;55.614;37.326;2023-04-03T23:17:07;23.1;;;19.2;;
51515;SDS011;37603;55.614;37.326;2023-04-03T23:23:06;20.7;;;17.5;;
51515;SDS011;37603;55.614;37.326;2023-04-03T23:29:05;23.2;;;19.3;;
51515;SDS011;37603;55.614;37.326;2023-04-03T23:35:04;22.4;;;18.4;;
51515;SDS011;37603;55.614;37.326;2023-04-03T23:41:03;21.5;;;18.6;;
51515;SDS011;37603;55.614;37.326;2023-04-03T23:47:02;24.1;;;19.0;;
51515;SDS011;37603;55.614;37.326;2023-04-03T23:53:01;24.3;;;20.9;;
51515;SDS011;37603;55.614;37.326;2023-04-03T23:59:00;26.9;;;22.4;;
